sensor_id;sensor_type;location;lat;lon;timestamp;P1;durP1;ratioP1;P2;durP2;ratioP2
323;SDS011;149;51.094;17.002;2023-03-09T00:05:19;41.47;;;28.10;;
323;SDS011;149;51.094;17.002;2023-03-09T00:10:14;40.30;;;25.70;;
323;SDS011;149;51.094;17.002;2023-03-09T00:15:23;39.45;;;27.65;;
323;SDS011;149;51.094;17.002;2023-03-09T00:44:45;46.60;;;33.00;;
323;SDS011;149;51.094;17.002;2023-03-09T00:47:17;44.75;;;31.90;;
323;SDS011;149;51.094;17.002;2023-03-09T01:14:08;46.45;;;33.53;;
323;SDS011;149;51.094;17.002;2023-03-09T01:16:39;48.13;;;30.50;;
323;SDS011;149;51.094;17.002;2023-03-09T01:19:20;47.70;;;31.33;;
323;SDS011;149;51.094;17.002;2023-03-09T01:40:53;42.15;;;28.85;;
323;SDS011;149;51.094;17.002;2023-03-09T02:34:37;56.22;;;35.70;;
323;SDS011;149;51.094;17.002;2023-03-09T02:37:15;61.30;;;35.70;;
323;SDS011;149;51.094;17.002;2023-03-09T02:40:02;64.28;;;37.28;;
323;SDS011;149;51.094;17.002;2023-03-09T02:42:45;65.63;;;37.38;;
323;SDS011;149;51.094;17.002;2023-03-09T02:47:59;59.95;;;35.60;;
323;SDS011;149;51.094;17.002;2023-03-09T02:50:27;62.15;;;35.40;;
323;SDS011;149;51.094;17.002;2023-03-09T02:52:54;53.67;;;31.83;;
323;SDS011;149;51.094;17.002;2023-03-09T02:55:23;52.67;;;33.45;;
323;SDS011;149;51.094;17.002;2023-03-09T02:57:51;45.17;;;31.23;;
323;SDS011;149;51.094;17.002;2023-03-09T03:00:18;46.60;;;30.77;;
323;SDS011;149;51.094;17.002;2023-03-09T03:02:49;48.03;;;30.85;;
323;SDS011;149;51.094;17.002;2023-03-09T03:05:16;56.95;;;32.22;;
323;SDS011;149;51.094;17.002;2023-03-09T03:07:47;59.08;;;34.17;;
323;SDS011;149;51.094;17.002;2023-03-09T03:10:15;55.45;;;32.05;;
323;SDS011;149;51.094;17.002;2023-03-09T03:12:43;56.28;;;34.83;;
323;SDS011;149;51.094;17.002;2023-03-09T03:15:13;68.82;;;36.70;;
323;SDS011;149;51.094;17.002;2023-03-09T03:17:54;60.25;;;35.38;;
323;SDS011;149;51.094;17.002;2023-03-09T04:03:29;58.60;;;35.28;;
323;SDS011;149;51.094;17.002;2023-03-09T04:05:57;59.80;;;34.63;;
323;SDS011;149;51.094;17.002;2023-03-09T04:08:28;57.50;;;32.63;;
323;SDS011;149;51.094;17.002;2023-03-09T04:11:07;63.22;;;36.08;;
323;SDS011;149;51.094;17.002;2023-03-09T04:13:41;68.43;;;38.80;;
323;SDS011;149;51.094;17.002;2023-03-09T04:16:23;68.20;;;36.20;;
323;SDS011;149;51.094;17.002;2023-03-09T04:19:19;59.95;;;36.20;;
323;SDS011;149;51.094;17.002;2023-03-09T04:21:48;64.18;;;36.13;;
323;SDS011;149;51.094;17.002;2023-03-09T04:24:24;65.07;;;37.42;;
323;SDS011;149;51.094;17.002;2023-03-09T04:32:00;67.63;;;37.33;;
323;SDS011;149;51.094;17.002;2023-03-09T04:34:30;67.00;;;35.67;;
323;SDS011;149;51.094;17.002;2023-03-09T04:37:00;64.88;;;35.67;;
323;SDS011;149;51.094;17.002;2023-03-09T04:39:30;60.28;;;33.67;;
323;SDS011;149;51.094;17.002;2023-03-09T04:41:57;68.65;;;35.20;;
323;SDS011;149;51.094;17.002;2023-03-09T04:44:26;74.57;;;35.10;;
323;SDS011;149;51.094;17.002;2023-03-09T04:47:08;79.60;;;38.00;;
323;SDS011;149;51.094;17.002;2023-03-09T04:49:40;61.35;;;33.60;;
323;SDS011;149;51.094;17.002;2023-03-09T04:54:47;68.30;;;35.95;;
323;SDS011;149;51.094;17.002;2023-03-09T05:05:08;68.78;;;32.95;;
323;SDS011;149;51.094;17.002;2023-03-09T05:07:36;63.35;;;35.35;;
323;SDS011;149;51.094;17.002;2023-03-09T05:10:03;68.32;;;37.38;;
323;SDS011;149;51.094;17.002;2023-03-09T05:12:31;67.68;;;36.78;;
323;SDS011;149;51.094;17.002;2023-03-09T05:14:59;70.00;;;37.53;;
323;SDS011;149;51.094;17.002;2023-03-09T05:17:36;67.80;;;35.85;;
323;SDS011;149;51.094;17.002;2023-03-09T05:20:03;70.38;;;36.90;;
323;SDS011;149;51.094;17.002;2023-03-09T05:22:37;65.32;;;36.15;;
323;SDS011;149;51.094;17.002;2023-03-09T05:25:05;75.43;;;38.70;;
323;SDS011;149;51.094;17.002;2023-03-09T05:27:32;78.88;;;39.53;;
323;SDS011;149;51.094;17.002;2023-03-09T05:30:00;74.47;;;40.90;;
323;SDS011;149;51.094;17.002;2023-03-09T05:32:29;61.13;;;34.53;;
323;SDS011;149;51.094;17.002;2023-03-09T05:34:56;82.45;;;38.05;;
323;SDS011;149;51.094;17.002;2023-03-09T05:37:26;58.90;;;34.97;;
323;SDS011;149;51.094;17.002;2023-03-09T05:39:53;67.88;;;33.60;;
323;SDS011;149;51.094;17.002;2023-03-09T05:42:21;74.18;;;36.83;;
323;SDS011;149;51.094;17.002;2023-03-09T05:44:49;57.70;;;30.20;;
323;SDS011;149;51.094;17.002;2023-03-09T05:47:16;60.70;;;30.63;;
323;SDS011;149;51.094;17.002;2023-03-09T05:49:43;65.47;;;33.30;;
323;SDS011;149;51.094;17.002;2023-03-09T05:52:10;50.65;;;29.33;;
323;SDS011;149;51.094;17.002;2023-03-09T05:54:43;57.10;;;31.40;;
323;SDS011;149;51.094;17.002;2023-03-09T05:57:56;56.50;;;29.35;;
323;SDS011;149;51.094;17.002;2023-03-09T06:00:23;63.92;;;33.05;;
323;SDS011;149;51.094;17.002;2023-03-09T06:02:50;67.72;;;33.80;;
323;SDS011;149;51.094;17.002;2023-03-09T06:05:17;56.25;;;29.85;;
323;SDS011;149;51.094;17.002;2023-03-09T06:07:44;54.42;;;30.08;;
323;SDS011;149;51.094;17.002;2023-03-09T06:10:12;55.30;;;31.92;;
323;SDS011;149;51.094;17.002;2023-03-09T06:12:42;57.63;;;28.25;;
323;SDS011;149;51.094;17.002;2023-03-09T06:17:41;53.50;;;29.75;;
323;SDS011;149;51.094;17.002;2023-03-09T06:20:12;47.35;;;27.42;;
323;SDS011;149;51.094;17.002;2023-03-09T06:22:40;45.33;;;25.85;;
323;SDS011;149;51.094;17.002;2023-03-09T06:25:11;45.22;;;24.52;;
323;SDS011;149;51.094;17.002;2023-03-09T06:27:42;51.80;;;27.23;;
323;SDS011;149;51.094;17.002;2023-03-09T06:30:32;50.43;;;25.67;;
323;SDS011;149;51.094;17.002;2023-03-09T06:33:00;38.67;;;21.42;;
323;SDS011;149;51.094;17.002;2023-03-09T06:35:29;41.35;;;23.48;;
323;SDS011;149;51.094;17.002;2023-03-09T06:38:00;43.03;;;25.10;;
323;SDS011;149;51.094;17.002;2023-03-09T06:40:39;34.45;;;22.70;;
323;SDS011;149;51.094;17.002;2023-03-09T06:43:18;41.38;;;24.48;;
323;SDS011;149;51.094;17.002;2023-03-09T06:46:10;40.67;;;24.20;;
323;SDS011;149;51.094;17.002;2023-03-09T06:51:17;44.97;;;24.77;;
323;SDS011;149;51.094;17.002;2023-03-09T06:53:47;48.85;;;22.90;;
323;SDS011;149;51.094;17.002;2023-03-09T06:56:18;49.40;;;27.20;;
323;SDS011;149;51.094;17.002;2023-03-09T06:58:46;38.13;;;23.23;;
323;SDS011;149;51.094;17.002;2023-03-09T07:01:18;47.55;;;27.70;;
323;SDS011;149;51.094;17.002;2023-03-09T07:03:46;45.88;;;25.73;;
323;SDS011;149;51.094;17.002;2023-03-09T07:06:19;43.75;;;25.67;;
323;SDS011;149;51.094;17.002;2023-03-09T07:08:46;48.33;;;27.13;;
323;SDS011;149;51.094;17.002;2023-03-09T07:11:18;44.75;;;25.08;;
323;SDS011;149;51.094;17.002;2023-03-09T07:13:49;44.33;;;22.20;;
323;SDS011;149;51.094;17.002;2023-03-09T07:16:20;36.05;;;22.40;;
323;SDS011;149;51.094;17.002;2023-03-09T07:18:51;34.22;;;21.25;;
323;SDS011;149;51.094;17.002;2023-03-09T07:21:21;37.58;;;21.98;;
323;SDS011;149;51.094;17.002;2023-03-09T07:24:01;27.95;;;19.08;;
323;SDS011;149;51.094;17.002;2023-03-09T07:26:29;33.80;;;21.70;;
323;SDS011;149;51.094;17.002;2023-03-09T07:28:56;39.97;;;22.17;;
323;SDS011;149;51.094;17.002;2023-03-09T07:31:25;38.70;;;24.75;;
323;SDS011;149;51.094;17.002;2023-03-09T07:33:56;33.90;;;21.67;;
323;SDS011;149;51.094;17.002;2023-03-09T07:36:24;30.15;;;19.90;;
323;SDS011;149;51.094;17.002;2023-03-09T07:38:52;27.25;;;17.88;;
323;SDS011;149;51.094;17.002;2023-03-09T07:41:20;26.08;;;16.20;;
323;SDS011;149;51.094;17.002;2023-03-09T07:43:49;32.58;;;18.02;;
323;SDS011;149;51.094;17.002;2023-03-09T07:46:18;28.98;;;17.63;;
323;SDS011;149;51.094;17.002;2023-03-09T07:48:45;29.20;;;19.70;;
323;SDS011;149;51.094;17.002;2023-03-09T07:51:13;32.28;;;19.35;;
323;SDS011;149;51.094;17.002;2023-03-09T07:53:44;35.25;;;21.45;;
323;SDS011;149;51.094;17.002;2023-03-09T07:56:14;33.17;;;20.73;;
323;SDS011;149;51.094;17.002;2023-03-09T08:01:12;34.45;;;17.88;;
323;SDS011;149;51.094;17.002;2023-03-09T08:03:51;29.83;;;18.40;;
323;SDS011;149;51.094;17.002;2023-03-09T08:06:21;26.60;;;17.88;;
323;SDS011;149;51.094;17.002;2023-03-09T08:08:53;27.60;;;17.55;;
323;SDS011;149;51.094;17.002;2023-03-09T08:11:27;28.33;;;17.00;;
323;SDS011;149;51.094;17.002;2023-03-09T08:16:37;25.50;;;16.77;;
323;SDS011;149;51.094;17.002;2023-03-09T08:19:04;25.13;;;15.00;;
323;SDS011;149;51.094;17.002;2023-03-09T08:21:32;27.05;;;16.00;;
323;SDS011;149;51.094;17.002;2023-03-09T08:26:46;24.95;;;15.57;;
323;SDS011;149;51.094;17.002;2023-03-09T08:29:13;19.73;;;14.95;;
323;SDS011;149;51.094;17.002;2023-03-09T08:37:04;19.25;;;13.77;;
323;SDS011;149;51.094;17.002;2023-03-09T08:39:31;19.02;;;14.10;;
323;SDS011;149;51.094;17.002;2023-03-09T08:41:58;18.52;;;13.07;;
323;SDS011;149;51.094;17.002;2023-03-09T08:44:26;21.10;;;13.43;;
323;SDS011;149;51.094;17.002;2023-03-09T08:46:53;18.75;;;12.80;;
323;SDS011;149;51.094;17.002;2023-03-09T08:49:21;16.65;;;12.13;;
323;SDS011;149;51.094;17.002;2023-03-09T08:51:48;15.88;;;12.40;;
323;SDS011;149;51.094;17.002;2023-03-09T08:54:17;15.80;;;11.95;;
323;SDS011;149;51.094;17.002;2023-03-09T08:56:44;16.58;;;13.57;;
323;SDS011;149;51.094;17.002;2023-03-09T08:59:10;14.15;;;11.82;;
323;SDS011;149;51.094;17.002;2023-03-09T09:01:38;16.38;;;10.75;;
323;SDS011;149;51.094;17.002;2023-03-09T09:04:06;18.48;;;12.40;;
323;SDS011;149;51.094;17.002;2023-03-09T09:09:04;18.45;;;12.48;;
323;SDS011;149;51.094;17.002;2023-03-09T09:14:07;16.58;;;12.95;;
323;SDS011;149;51.094;17.002;2023-03-09T09:16:34;16.88;;;13.52;;
323;SDS011;149;51.094;17.002;2023-03-09T09:19:02;18.80;;;13.50;;
323;SDS011;149;51.094;17.002;2023-03-09T09:21:29;17.08;;;12.50;;
323;SDS011;149;51.094;17.002;2023-03-09T09:23:57;14.68;;;10.77;;
323;SDS011;149;51.094;17.002;2023-03-09T09:26:25;15.98;;;11.20;;
323;SDS011;149;51.094;17.002;2023-03-09T09:28:52;15.80;;;12.45;;
323;SDS011;149;51.094;17.002;2023-03-09T09:31:22;17.92;;;11.90;;
323;SDS011;149;51.094;17.002;2023-03-09T09:33:49;17.55;;;12.48;;
323;SDS011;149;51.094;17.002;2023-03-09T09:36:17;17.58;;;12.82;;
323;SDS011;149;51.094;17.002;2023-03-09T09:38:46;19.15;;;12.98;;
323;SDS011;149;51.094;17.002;2023-03-09T09:41:18;18.13;;;12.68;;
323;SDS011;149;51.094;17.002;2023-03-09T09:43:50;15.93;;;11.93;;
323;SDS011;149;51.094;17.002;2023-03-09T09:46:20;17.27;;;11.88;;
323;SDS011;149;51.094;17.002;2023-03-09T09:48:49;15.77;;;12.73;;
323;SDS011;149;51.094;17.002;2023-03-09T09:54:15;15.35;;;10.90;;
323;SDS011;149;51.094;17.002;2023-03-09T09:56:58;13.85;;;11.50;;
323;SDS011;149;51.094;17.002;2023-03-09T10:04:37;15.23;;;11.48;;
323;SDS011;149;51.094;17.002;2023-03-09T10:07:16;11.80;;;10.45;;
323;SDS011;149;51.094;17.002;2023-03-09T10:09:51;12.10;;;9.57;;
323;SDS011;149;51.094;17.002;2023-03-09T10:12:23;12.93;;;10.93;;
323;SDS011;149;51.094;17.002;2023-03-09T10:14:52;13.20;;;11.32;;
323;SDS011;149;51.094;17.002;2023-03-09T10:17:39;13.25;;;10.75;;
323;SDS011;149;51.094;17.002;2023-03-09T10:20:24;16.00;;;11.50;;
323;SDS011;149;51.094;17.002;2023-03-09T10:22:56;16.20;;;11.15;;
323;SDS011;149;51.094;17.002;2023-03-09T10:25:25;17.83;;;12.75;;
323;SDS011;149;51.094;17.002;2023-03-09T10:33:14;16.10;;;12.18;;
323;SDS011;149;51.094;17.002;2023-03-09T10:35:53;13.45;;;11.15;;
323;SDS011;149;51.094;17.002;2023-03-09T10:38:28;13.85;;;11.65;;
323;SDS011;149;51.094;17.002;2023-03-09T10:41:01;15.85;;;11.13;;
323;SDS011;149;51.094;17.002;2023-03-09T10:43:39;16.45;;;12.15;;
323;SDS011;149;51.094;17.002;2023-03-09T10:46:14;14.23;;;11.57;;
323;SDS011;149;51.094;17.002;2023-03-09T10:48:49;16.10;;;11.30;;
323;SDS011;149;51.094;17.002;2023-03-09T10:51:40;15.48;;;12.90;;
323;SDS011;149;51.094;17.002;2023-03-09T10:56:58;16.83;;;12.55;;
323;SDS011;149;51.094;17.002;2023-03-09T10:59:28;16.45;;;10.77;;
323;SDS011;149;51.094;17.002;2023-03-09T11:01:57;14.57;;;10.15;;
323;SDS011;149;51.094;17.002;2023-03-09T11:04:32;14.40;;;11.65;;
323;SDS011;149;51.094;17.002;2023-03-09T11:07:17;15.25;;;12.02;;
323;SDS011;149;51.094;17.002;2023-03-09T11:09:58;12.38;;;9.70;;
323;SDS011;149;51.094;17.002;2023-03-09T11:17:45;13.80;;;11.02;;
323;SDS011;149;51.094;17.002;2023-03-09T11:20:25;13.60;;;11.93;;
323;SDS011;149;51.094;17.002;2023-03-09T11:23:16;16.10;;;12.13;;
323;SDS011;149;51.094;17.002;2023-03-09T11:45:00;10.77;;;9.57;;
323;SDS011;149;51.094;17.002;2023-03-09T11:55:25;13.52;;;9.90;;
323;SDS011;149;51.094;17.002;2023-03-09T11:58:03;10.77;;;8.27;;
323;SDS011;149;51.094;17.002;2023-03-09T12:06:00;11.07;;;7.78;;
323;SDS011;149;51.094;17.002;2023-03-09T13:05:27;17.95;;;10.73;;
323;SDS011;149;51.094;17.002;2023-03-09T13:32:36;12.10;;;10.10;;
323;SDS011;149;51.094;17.002;2023-03-09T13:37:49;13.98;;;9.10;;
323;SDS011;149;51.094;17.002;2023-03-09T13:40:28;13.18;;;9.63;;
323;SDS011;149;51.094;17.002;2023-03-09T13:42:57;18.15;;;11.30;;
323;SDS011;149;51.094;17.002;2023-03-09T13:45:28;12.38;;;9.73;;
323;SDS011;149;51.094;17.002;2023-03-09T13:47:58;9.65;;;7.95;;
323;SDS011;149;51.094;17.002;2023-03-09T13:50:28;13.23;;;9.32;;
323;SDS011;149;51.094;17.002;2023-03-09T13:58:58;14.93;;;8.93;;
323;SDS011;149;51.094;17.002;2023-03-09T14:04:01;14.52;;;10.57;;
323;SDS011;149;51.094;17.002;2023-03-09T14:06:29;12.35;;;9.65;;
323;SDS011;149;51.094;17.002;2023-03-09T14:09:29;11.68;;;10.25;;
323;SDS011;149;51.094;17.002;2023-03-09T14:12:02;13.07;;;10.75;;
323;SDS011;149;51.094;17.002;2023-03-09T14:14:30;12.95;;;9.68;;
323;SDS011;149;51.094;17.002;2023-03-09T14:17:00;11.10;;;9.55;;
323;SDS011;149;51.094;17.002;2023-03-09T14:19:28;10.35;;;8.65;;
323;SDS011;149;51.094;17.002;2023-03-09T14:21:57;12.52;;;9.23;;
323;SDS011;149;51.094;17.002;2023-03-09T14:24:33;13.80;;;9.93;;
323;SDS011;149;51.094;17.002;2023-03-09T14:27:11;12.35;;;9.93;;
323;SDS011;149;51.094;17.002;2023-03-09T14:29:38;12.02;;;9.50;;
323;SDS011;149;51.094;17.002;2023-03-09T14:34:54;13.48;;;10.25;;
323;SDS011;149;51.094;17.002;2023-03-09T14:39:52;13.60;;;8.75;;
323;SDS011;149;51.094;17.002;2023-03-09T14:45:02;12.25;;;8.40;;
323;SDS011;149;51.094;17.002;2023-03-09T14:47:41;10.88;;;8.77;;
323;SDS011;149;51.094;17.002;2023-03-09T14:50:13;11.98;;;8.75;;
323;SDS011;149;51.094;17.002;2023-03-09T14:52:43;12.27;;;8.80;;
323;SDS011;149;51.094;17.002;2023-03-09T14:55:14;13.32;;;9.70;;
323;SDS011;149;51.094;17.002;2023-03-09T14:57:46;13.65;;;9.73;;
323;SDS011;149;51.094;17.002;2023-03-09T15:00:20;12.45;;;9.77;;
323;SDS011;149;51.094;17.002;2023-03-09T15:02:50;14.57;;;9.02;;
323;SDS011;149;51.094;17.002;2023-03-09T15:05:22;11.43;;;9.18;;
323;SDS011;149;51.094;17.002;2023-03-09T15:07:51;13.60;;;9.13;;
323;SDS011;149;51.094;17.002;2023-03-09T15:10:19;8.90;;;7.43;;
323;SDS011;149;51.094;17.002;2023-03-09T15:12:46;11.75;;;8.30;;
323;SDS011;149;51.094;17.002;2023-03-09T15:15:21;13.45;;;9.50;;
323;SDS011;149;51.094;17.002;2023-03-09T15:17:49;11.68;;;9.45;;
323;SDS011;149;51.094;17.002;2023-03-09T15:20:22;13.00;;;10.25;;
323;SDS011;149;51.094;17.002;2023-03-09T15:23:06;11.50;;;8.55;;
323;SDS011;149;51.094;17.002;2023-03-09T15:25:33;12.63;;;9.70;;
323;SDS011;149;51.094;17.002;2023-03-09T15:28:00;14.27;;;11.25;;
323;SDS011;149;51.094;17.002;2023-03-09T15:30:26;11.73;;;8.80;;
323;SDS011;149;51.094;17.002;2023-03-09T15:32:54;16.98;;;11.93;;
323;SDS011;149;51.094;17.002;2023-03-09T15:35:21;14.60;;;9.57;;
323;SDS011;149;51.094;17.002;2023-03-09T15:37:48;18.27;;;11.23;;
323;SDS011;149;51.094;17.002;2023-03-09T15:40:16;16.52;;;11.77;;
323;SDS011;149;51.094;17.002;2023-03-09T15:42:44;14.57;;;11.15;;
323;SDS011;149;51.094;17.002;2023-03-09T15:45:12;11.57;;;9.57;;
323;SDS011;149;51.094;17.002;2023-03-09T15:47:40;17.00;;;12.23;;
323;SDS011;149;51.094;17.002;2023-03-09T15:50:08;15.13;;;11.70;;
323;SDS011;149;51.094;17.002;2023-03-09T15:52:37;11.55;;;8.98;;
323;SDS011;149;51.094;17.002;2023-03-09T15:55:04;13.43;;;10.57;;
323;SDS011;149;51.094;17.002;2023-03-09T15:57:32;19.75;;;12.93;;
323;SDS011;149;51.094;17.002;2023-03-09T15:59:59;16.00;;;13.07;;
323;SDS011;149;51.094;17.002;2023-03-09T16:02:26;19.85;;;14.15;;
323;SDS011;149;51.094;17.002;2023-03-09T16:04:53;15.88;;;12.27;;
323;SDS011;149;51.094;17.002;2023-03-09T16:07:20;17.45;;;13.50;;
323;SDS011;149;51.094;17.002;2023-03-09T16:09:47;19.45;;;13.88;;
323;SDS011;149;51.094;17.002;2023-03-09T16:12:14;24.48;;;15.27;;
323;SDS011;149;51.094;17.002;2023-03-09T16:14:42;17.13;;;13.07;;
323;SDS011;149;51.094;17.002;2023-03-09T16:17:11;19.65;;;13.05;;
323;SDS011;149;51.094;17.002;2023-03-09T16:19:38;17.80;;;14.15;;
323;SDS011;149;51.094;17.002;2023-03-09T16:22:05;20.88;;;14.60;;
323;SDS011;149;51.094;17.002;2023-03-09T16:24:35;18.83;;;14.43;;
323;SDS011;149;51.094;17.002;2023-03-09T16:27:02;17.60;;;13.70;;
323;SDS011;149;51.094;17.002;2023-03-09T16:29:29;17.10;;;13.07;;
323;SDS011;149;51.094;17.002;2023-03-09T16:31:57;21.17;;;15.30;;
323;SDS011;149;51.094;17.002;2023-03-09T16:34:29;22.77;;;15.88;;
323;SDS011;149;51.094;17.002;2023-03-09T16:37:02;19.80;;;14.38;;
323;SDS011;149;51.094;17.002;2023-03-09T16:39:30;21.85;;;14.15;;
323;SDS011;149;51.094;17.002;2023-03-09T16:41:58;23.10;;;15.30;;
323;SDS011;149;51.094;17.002;2023-03-09T16:44:25;20.63;;;13.90;;
323;SDS011;149;51.094;17.002;2023-03-09T16:46:52;21.10;;;15.23;;
323;SDS011;149;51.094;17.002;2023-03-09T16:49:19;20.35;;;14.48;;
323;SDS011;149;51.094;17.002;2023-03-09T16:51:46;21.98;;;15.30;;
323;SDS011;149;51.094;17.002;2023-03-09T16:54:14;19.63;;;12.88;;
323;SDS011;149;51.094;17.002;2023-03-09T16:56:41;22.00;;;16.42;;
323;SDS011;149;51.094;17.002;2023-03-09T16:59:08;20.55;;;14.25;;
323;SDS011;149;51.094;17.002;2023-03-09T17:01:35;19.98;;;15.00;;
323;SDS011;149;51.094;17.002;2023-03-09T17:04:02;19.42;;;14.30;;
323;SDS011;149;51.094;17.002;2023-03-09T17:06:31;21.63;;;14.63;;
323;SDS011;149;51.094;17.002;2023-03-09T17:09:00;18.67;;;14.10;;
323;SDS011;149;51.094;17.002;2023-03-09T17:11:27;19.80;;;14.98;;
323;SDS011;149;51.094;17.002;2023-03-09T17:13:54;21.92;;;15.20;;
323;SDS011;149;51.094;17.002;2023-03-09T17:16:21;21.40;;;15.75;;
323;SDS011;149;51.094;17.002;2023-03-09T17:18:49;28.35;;;16.80;;
323;SDS011;149;51.094;17.002;2023-03-09T17:21:20;24.92;;;18.15;;
323;SDS011;149;51.094;17.002;2023-03-09T17:23:47;21.50;;;14.93;;
323;SDS011;149;51.094;17.002;2023-03-09T17:26:14;19.58;;;13.70;;
323;SDS011;149;51.094;17.002;2023-03-09T17:28:41;21.25;;;15.07;;
323;SDS011;149;51.094;17.002;2023-03-09T17:31:11;15.68;;;12.80;;
323;SDS011;149;51.094;17.002;2023-03-09T17:33:41;18.80;;;13.82;;
323;SDS011;149;51.094;17.002;2023-03-09T17:36:08;19.58;;;12.70;;
323;SDS011;149;51.094;17.002;2023-03-09T17:38:36;21.33;;;15.25;;
323;SDS011;149;51.094;17.002;2023-03-09T17:41:06;19.58;;;14.93;;
323;SDS011;149;51.094;17.002;2023-03-09T17:43:34;21.13;;;14.45;;
323;SDS011;149;51.094;17.002;2023-03-09T17:46:24;20.55;;;14.48;;
323;SDS011;149;51.094;17.002;2023-03-09T17:48:54;20.48;;;15.65;;
323;SDS011;149;51.094;17.002;2023-03-09T17:51:21;22.65;;;16.23;;
323;SDS011;149;51.094;17.002;2023-03-09T17:53:48;28.08;;;15.80;;
323;SDS011;149;51.094;17.002;2023-03-09T17:56:16;18.48;;;14.15;;
323;SDS011;149;51.094;17.002;2023-03-09T17:58:45;20.92;;;13.90;;
323;SDS011;149;51.094;17.002;2023-03-09T18:03:43;20.58;;;15.93;;
323;SDS011;149;51.094;17.002;2023-03-09T18:06:20;26.42;;;16.23;;
323;SDS011;149;51.094;17.002;2023-03-09T18:08:50;23.45;;;15.13;;
323;SDS011;149;51.094;17.002;2023-03-09T18:11:19;21.70;;;17.23;;
323;SDS011;149;51.094;17.002;2023-03-09T18:13:48;18.65;;;16.23;;
323;SDS011;149;51.094;17.002;2023-03-09T18:16:19;27.63;;;17.67;;
323;SDS011;149;51.094;17.002;2023-03-09T18:18:46;22.27;;;16.35;;
323;SDS011;149;51.094;17.002;2023-03-09T18:21:15;25.95;;;17.63;;
323;SDS011;149;51.094;17.002;2023-03-09T18:23:42;23.73;;;16.30;;
323;SDS011;149;51.094;17.002;2023-03-09T18:26:15;22.25;;;16.00;;
323;SDS011;149;51.094;17.002;2023-03-09T18:28:44;22.30;;;15.20;;
323;SDS011;149;51.094;17.002;2023-03-09T18:31:11;27.52;;;16.13;;
323;SDS011;149;51.094;17.002;2023-03-09T18:33:38;30.42;;;20.30;;
323;SDS011;149;51.094;17.002;2023-03-09T18:36:05;28.45;;;19.38;;
323;SDS011;149;51.094;17.002;2023-03-09T18:38:40;29.15;;;19.42;;
323;SDS011;149;51.094;17.002;2023-03-09T18:41:08;29.25;;;18.33;;
323;SDS011;149;51.094;17.002;2023-03-09T18:43:35;31.73;;;18.95;;
323;SDS011;149;51.094;17.002;2023-03-09T18:46:02;37.25;;;20.17;;
323;SDS011;149;51.094;17.002;2023-03-09T18:48:30;42.75;;;23.92;;
323;SDS011;149;51.094;17.002;2023-03-09T18:50:58;31.40;;;20.00;;
323;SDS011;149;51.094;17.002;2023-03-09T18:53:26;33.95;;;20.50;;
323;SDS011;149;51.094;17.002;2023-03-09T18:56:01;35.88;;;22.98;;
323;SDS011;149;51.094;17.002;2023-03-09T18:58:31;50.10;;;27.85;;
323;SDS011;149;51.094;17.002;2023-03-09T19:00:59;33.92;;;22.58;;
323;SDS011;149;51.094;17.002;2023-03-09T19:03:31;25.90;;;20.60;;
323;SDS011;149;51.094;17.002;2023-03-09T19:05:59;34.47;;;24.23;;
323;SDS011;149;51.094;17.002;2023-03-09T19:08:28;31.20;;;20.38;;
323;SDS011;149;51.094;17.002;2023-03-09T19:10:55;34.67;;;21.50;;
323;SDS011;149;51.094;17.002;2023-03-09T19:13:22;31.02;;;20.67;;
323;SDS011;149;51.094;17.002;2023-03-09T19:16:07;30.70;;;21.52;;
323;SDS011;149;51.094;17.002;2023-03-09T19:18:35;47.42;;;26.85;;
323;SDS011;149;51.094;17.002;2023-03-09T19:21:10;34.97;;;23.30;;
323;SDS011;149;51.094;17.002;2023-03-09T19:23:41;48.10;;;23.50;;
323;SDS011;149;51.094;17.002;2023-03-09T19:26:09;47.88;;;27.20;;
323;SDS011;149;51.094;17.002;2023-03-09T19:28:37;36.10;;;22.92;;
323;SDS011;149;51.094;17.002;2023-03-09T19:33:37;38.20;;;23.67;;
323;SDS011;149;51.094;17.002;2023-03-09T19:49:28;37.67;;;24.15;;
323;SDS011;149;51.094;17.002;2023-03-09T19:54:31;32.85;;;22.27;;
323;SDS011;149;51.094;17.002;2023-03-09T19:59:33;38.15;;;23.15;;
323;SDS011;149;51.094;17.002;2023-03-09T20:02:00;35.60;;;24.73;;
323;SDS011;149;51.094;17.002;2023-03-09T20:04:27;42.08;;;24.02;;
323;SDS011;149;51.094;17.002;2023-03-09T20:20:06;35.72;;;23.35;;
323;SDS011;149;51.094;17.002;2023-03-09T20:22:34;34.85;;;24.00;;
323;SDS011;149;51.094;17.002;2023-03-09T20:25:01;39.40;;;26.08;;
323;SDS011;149;51.094;17.002;2023-03-09T20:27:28;43.75;;;26.25;;
323;SDS011;149;51.094;17.002;2023-03-09T20:29:56;42.17;;;24.13;;
323;SDS011;149;51.094;17.002;2023-03-09T20:32:22;42.45;;;26.65;;
323;SDS011;149;51.094;17.002;2023-03-09T20:37:32;40.42;;;25.33;;
323;SDS011;149;51.094;17.002;2023-03-09T20:39:59;38.88;;;25.83;;
323;SDS011;149;51.094;17.002;2023-03-09T20:42:26;42.28;;;26.95;;
323;SDS011;149;51.094;17.002;2023-03-09T20:44:53;40.15;;;26.02;;
323;SDS011;149;51.094;17.002;2023-03-09T20:47:23;44.25;;;26.77;;
323;SDS011;149;51.094;17.002;2023-03-09T20:49:50;43.72;;;27.08;;
323;SDS011;149;51.094;17.002;2023-03-09T20:52:17;38.75;;;24.98;;
323;SDS011;149;51.094;17.002;2023-03-09T20:54:44;43.38;;;27.33;;
323;SDS011;149;51.094;17.002;2023-03-09T20:57:15;52.85;;;28.60;;
323;SDS011;149;51.094;17.002;2023-03-09T20:59:42;38.85;;;26.73;;
323;SDS011;149;51.094;17.002;2023-03-09T21:02:10;43.33;;;28.08;;
323;SDS011;149;51.094;17.002;2023-03-09T21:04:37;53.05;;;30.35;;
323;SDS011;149;51.094;17.002;2023-03-09T21:07:05;53.00;;;30.17;;
323;SDS011;149;51.094;17.002;2023-03-09T21:09:32;46.88;;;28.95;;
323;SDS011;149;51.094;17.002;2023-03-09T21:11:59;45.88;;;29.50;;
323;SDS011;149;51.094;17.002;2023-03-09T21:14:26;47.15;;;27.98;;
323;SDS011;149;51.094;17.002;2023-03-09T21:16:53;46.63;;;27.45;;
323;SDS011;149;51.094;17.002;2023-03-09T21:19:22;46.72;;;30.95;;
323;SDS011;149;51.094;17.002;2023-03-09T21:21:49;50.58;;;31.08;;
323;SDS011;149;51.094;17.002;2023-03-09T21:24:18;49.45;;;31.98;;
323;SDS011;149;51.094;17.002;2023-03-09T21:26:46;53.03;;;28.70;;
323;SDS011;149;51.094;17.002;2023-03-09T21:29:13;51.10;;;30.20;;
323;SDS011;149;51.094;17.002;2023-03-09T21:31:41;45.90;;;31.88;;
323;SDS011;149;51.094;17.002;2023-03-09T21:34:08;46.63;;;29.77;;
323;SDS011;149;51.094;17.002;2023-03-09T21:36:35;42.08;;;30.05;;
323;SDS011;149;51.094;17.002;2023-03-09T21:39:02;50.90;;;32.08;;
323;SDS011;149;51.094;17.002;2023-03-09T21:41:30;47.92;;;29.02;;
323;SDS011;149;51.094;17.002;2023-03-09T21:43:57;62.28;;;34.22;;
323;SDS011;149;51.094;17.002;2023-03-09T21:46:25;50.47;;;33.17;;
323;SDS011;149;51.094;17.002;2023-03-09T21:48:53;52.47;;;33.13;;
323;SDS011;149;51.094;17.002;2023-03-09T21:51:21;50.03;;;30.15;;
323;SDS011;149;51.094;17.002;2023-03-09T21:53:53;59.40;;;35.97;;
323;SDS011;149;51.094;17.002;2023-03-09T21:56:22;59.92;;;36.38;;
323;SDS011;149;51.094;17.002;2023-03-09T21:58:51;53.00;;;34.75;;
323;SDS011;149;51.094;17.002;2023-03-09T22:01:20;62.35;;;34.42;;
323;SDS011;149;51.094;17.002;2023-03-09T22:03:47;49.90;;;30.70;;
323;SDS011;149;51.094;17.002;2023-03-09T22:06:15;61.80;;;35.70;;
323;SDS011;149;51.094;17.002;2023-03-09T22:08:47;52.20;;;30.48;;
323;SDS011;149;51.094;17.002;2023-03-09T22:11:15;51.25;;;33.03;;